Time;durP1;ratioP1;P1;durP2;ratioP2;P2;SDS_P1;SDS_P2;PMS_P1;PMS_P2;Temp;Humidity;BMP_temperature;BMP_pressure;BME280_temperature;BME280_humidity;BME280_pressure;Samples;Min_cycle;Max_cycle;Signal;HPM_P1;HPM_P2
2023/07/28 00:00:06;;;;;;;2.70;2.47;;;;;;;;;;5014838;28;20642;-52
2023/07/28 00:02:32;;;;;;;1.93;1.83;;;;;;;;;;5024515;28;20201;-52
2023/07/28 00:04:58;;;;;;;2.30;1.70;;;;;;;;;;5016650;28;20202;-51
2023/07/28 00:07:24;;;;;;;2.27;2.10;;;;;;;;;;5014534;28;20224;-54
2023/07/28 00:09:50;;;;;;;1.80;1.70;;;;;;;;;;5020905;28;20186;-52
2023/07/28 00:12:17;;;;;;;2.13;1.93;;;;;;;;;;5021417;28;20717;-52
2023/07/28 00:14:43;;;;;;;2.13;1.83;;;;;;;;;;5016647;28;20189;-50
2023/07/28 00:17:09;;;;;;;2.30;2.10;;;;;;;;;;5022004;28;20241;-51
2023/07/28 00:19:35;;;;;;;1.93;1.83;;;;;;;;;;5018205;28;20178;-51
2023/07/28 00:22:02;;;;;;;2.00;1.90;;;;;;;;;;5012130;28;20185;-52
2023/07/28 00:24:28;;;;;;;2.23;2.00;;;;;;;;;;5021417;28;20237;-51
2023/07/28 00:26:57;;;;;;;1.97;1.87;;;;;;;;;;5018765;28;21439;-52
2023/07/28 00:29:23;;;;;;;2.23;2.13;;;;;;;;;;5010625;28;20191;-51
2023/07/28 00:31:50;;;;;;;2.20;2.10;;;;;;;;;;5020233;28;20483;-51
2023/07/28 00:34:16;;;;;;;2.77;2.40;;;;;;;;;;5020760;28;20232;-51
2023/07/28 00:36:45;;;;;;;2.43;2.23;;;;;;;;;;5019941;28;20192;-51
2023/07/28 00:39:11;;;;;;;3.13;2.17;;;;;;;;;;5019486;28;20573;-51
2023/07/28 00:41:37;;;;;;;2.47;2.10;;;;;;;;;;5016102;28;20646;-51
2023/07/28 00:44:04;;;;;;;2.50;2.17;;;;;;;;;;5012056;28;20203;-50
2023/07/28 00:46:30;;;;;;;2.10;2.00;;;;;;;;;;5014674;28;20185;-51
2023/07/28 00:48:57;;;;;;;2.40;2.20;;;;;;;;;;5014134;28;20174;-51
2023/07/28 00:51:23;;;;;;;2.70;2.30;;;;;;;;;;5012450;28;20325;-50
2023/07/28 00:53:52;;;;;;;5.60;2.03;;;;;;;;;;5015287;28;20865;-50
2023/07/28 00:56:19;;;;;;;2.57;2.37;;;;;;;;;;5020091;28;20193;-51
2023/07/28 00:58:46;;;;;;;2.50;2.30;;;;;;;;;;5019638;28;20186;-51
2023/07/28 01:01:12;;;;;;;2.30;2.10;;;;;;;;;;5019226;28;20181;-51
2023/07/28 01:03:38;;;;;;;2.57;2.37;;;;;;;;;;5015605;28;20677;-49
2023/07/28 01:06:10;;;;;;;2.90;2.60;;;;;;;;;;5014590;28;20584;-50
2023/07/28 01:08:43;;;;;;;3.10;2.30;;;;;;;;;;5019770;28;20204;-50
2023/07/28 01:11:09;;;;;;;2.90;2.20;;;;;;;;;;5016600;28;20567;-51
2023/07/28 01:13:35;;;;;;;2.00;1.90;;;;;;;;;;5012870;28;20276;-50
2023/07/28 01:16:02;;;;;;;4.13;2.30;;;;;;;;;;5012272;28;20832;-51
2023/07/28 01:18:28;;;;;;;2.17;2.03;;;;;;;;;;5011934;28;20305;-51
2023/07/28 01:20:57;;;;;;;3.90;2.10;;;;;;;;;;5018863;28;20186;-50
2023/07/28 01:23:26;;;;;;;1.90;1.80;;;;;;;;;;5020341;28;20212;-51
2023/07/28 01:28:33;;;;;;;2.87;1.90;;;;;;;;;;5039809;23;22003;-51
2023/07/28 01:30:59;;;;;;;3.50;2.33;;;;;;;;;;4989328;23;20309;-55
2023/07/28 01:33:26;;;;;;;2.43;2.23;;;;;;;;;;4972874;28;20216;-55
2023/07/28 01:35:52;;;;;;;1.80;1.70;;;;;;;;;;4975712;28;20205;-56
2023/07/28 01:38:18;;;;;;;2.13;2.03;;;;;;;;;;4984740;28;20189;-55
2023/07/28 01:40:44;;;;;;;3.00;2.00;;;;;;;;;;4982428;28;20896;-56
2023/07/28 01:43:10;;;;;;;2.40;2.10;;;;;;;;;;4981711;28;20283;-56
2023/07/28 01:45:36;;;;;;;2.13;2.00;;;;;;;;;;4979254;28;20203;-56
2023/07/28 01:48:02;;;;;;;2.13;1.93;;;;;;;;;;4980969;28;20295;-56
2023/07/28 01:50:28;;;;;;;2.00;1.90;;;;;;;;;;4980177;28;20180;-56
2023/07/28 01:52:54;;;;;;;2.33;2.13;;;;;;;;;;4976243;28;20188;-56
2023/07/28 01:55:20;;;;;;;3.30;2.27;;;;;;;;;;4985721;28;20663;-56
2023/07/28 01:57:55;;;;;;;2.10;1.97;;;;;;;;;;4981131;28;20273;-56
2023/07/28 02:00:21;;;;;;;2.30;2.10;;;;;;;;;;4978013;28;20327;-56
2023/07/28 02:02:47;;;;;;;2.13;1.90;;;;;;;;;;4977983;28;20306;-55
2023/07/28 02:05:13;;;;;;;1.90;1.80;;;;;;;;;;4975287;28;20191;-55
2023/07/28 02:07:39;;;;;;;1.87;1.77;;;;;;;;;;4980423;28;20180;-56
2023/07/28 02:10:06;;;;;;;2.00;1.90;;;;;;;;;;4978019;28;20184;-56
2023/07/28 02:12:32;;;;;;;1.70;1.60;;;;;;;;;;4984164;28;20653;-56
2023/07/28 02:14:58;;;;;;;2.40;2.20;;;;;;;;;;4983272;28;20595;-57
2023/07/28 02:17:24;;;;;;;2.00;1.83;;;;;;;;;;4976461;28;20187;-56
2023/07/28 02:19:50;;;;;;;2.00;1.90;;;;;;;;;;4981319;28;20311;-56
2023/07/28 02:22:16;;;;;;;2.07;1.97;;;;;;;;;;4984054;28;20179;-56
2023/07/28 02:24:42;;;;;;;1.80;1.70;;;;;;;;;;4984026;28;20200;-56
2023/07/28 02:27:08;;;;;;;3.60;2.17;;;;;;;;;;4984505;28;20249;-57
2023/07/28 02:29:34;;;;;;;2.90;2.23;;;;;;;;;;4981415;28;20213;-56
2023/07/28 02:32:00;;;;;;;2.63;1.70;;;;;;;;;;4975605;28;20187;-56
2023/07/28 02:34:26;;;;;;;2.00;1.60;;;;;;;;;;4972202;28;20237;-56
2023/07/28 02:36:52;;;;;;;2.33;2.13;;;;;;;;;;4973651;28;20187;-56
2023/07/28 02:39:18;;;;;;;1.50;1.40;;;;;;;;;;4969030;28;20256;-53
2023/07/28 02:41:45;;;;;;;1.90;1.80;;;;;;;;;;4973627;28;20199;-54
2023/07/28 02:44:11;;;;;;;1.83;1.73;;;;;;;;;;4980894;28;20215;-53
2023/07/28 02:46:37;;;;;;;2.10;2.00;;;;;;;;;;4980675;28;20410;-54
2023/07/28 02:49:03;;;;;;;1.80;1.70;;;;;;;;;;4975615;28;20508;-55
2023/07/28 02:51:30;;;;;;;1.73;1.63;;;;;;;;;;4973093;28;20191;-55
2023/07/28 02:53:56;;;;;;;1.77;1.67;;;;;;;;;;4971644;28;20184;-55
2023/07/28 02:56:22;;;;;;;1.70;1.60;;;;;;;;;;4967458;28;20253;-55
2023/07/28 02:58:49;;;;;;;1.80;1.70;;;;;;;;;;4973877;28;20256;-53
2023/07/28 03:01:15;;;;;;;2.03;1.93;;;;;;;;;;4968024;28;20330;-53
2023/07/28 03:03:41;;;;;;;2.03;1.93;;;;;;;;;;4978623;28;20210;-54
2023/07/28 03:06:07;;;;;;;3.90;1.67;;;;;;;;;;4974443;28;20190;-54
2023/07/28 03:08:33;;;;;;;1.90;1.80;;;;;;;;;;4975124;28;20186;-54
2023/07/28 03:11:02;;;;;;;1.80;1.70;;;;;;;;;;4971554;28;20183;-54
2023/07/28 03:13:28;;;;;;;1.80;1.70;;;;;;;;;;4971255;28;20291;-54
2023/07/28 03:15:54;;;;;;;2.03;1.93;;;;;;;;;;4978280;28;20735;-55
2023/07/28 03:18:20;;;;;;;2.03;1.93;;;;;;;;;;4975309;28;20226;-54
2023/07/28 03:20:46;;;;;;;1.70;1.60;;;;;;;;;;4968839;28;20188;-54
2023/07/28 03:23:13;;;;;;;2.00;1.87;;;;;;;;;;4974939;28;20677;-54
2023/07/28 03:25:39;;;;;;;1.70;1.60;;;;;;;;;;4974581;28;20249;-54
2023/07/28 03:28:05;;;;;;;1.90;1.80;;;;;;;;;;4974617;28;20177;-53
2023/07/28 03:30:31;;;;;;;1.97;1.87;;;;;;;;;;4970312;28;20267;-53
2023/07/28 03:32:57;;;;;;;1.70;1.60;;;;;;;;;;4972231;28;20221;-54
2023/07/28 03:35:23;;;;;;;1.93;1.83;;;;;;;;;;4969714;28;20470;-54
2023/07/28 03:37:49;;;;;;;1.77;1.67;;;;;;;;;;4976106;28;20273;-54
2023/07/28 03:40:15;;;;;;;1.93;1.83;;;;;;;;;;4974505;28;20183;-54
2023/07/28 03:42:41;;;;;;;2.83;1.77;;;;;;;;;;4976701;28;20249;-53
2023/07/28 03:45:08;;;;;;;2.40;1.60;;;;;;;;;;4975290;28;20267;-53
2023/07/28 03:47:34;;;;;;;1.93;1.83;;;;;;;;;;4973445;28;20271;-54
2023/07/28 03:50:00;;;;;;;1.70;1.60;;;;;;;;;;4968855;28;20179;-56
2023/07/28 03:52:26;;;;;;;1.60;1.50;;;;;;;;;;4969865;28;20195;-56
2023/07/28 03:54:52;;;;;;;2.20;1.80;;;;;;;;;;4975254;28;20646;-56
2023/07/28 03:57:18;;;;;;;1.80;1.70;;;;;;;;;;4978183;28;20187;-56
2023/07/28 03:59:44;;;;;;;1.60;1.50;;;;;;;;;;4970458;28;20211;-56
2023/07/28 04:02:10;;;;;;;1.93;1.83;;;;;;;;;;4973725;28;20254;-56
2023/07/28 04:04:36;;;;;;;1.80;1.70;;;;;;;;;;4978544;28;20218;-56
2023/07/28 04:07:02;;;;;;;1.80;1.70;;;;;;;;;;4977427;28;20191;-57
2023/07/28 04:09:28;;;;;;;1.60;1.50;;;;;;;;;;4969314;28;20219;-56
2023/07/28 04:11:54;;;;;;;2.10;1.90;;;;;;;;;;4975165;28;20580;-57
2023/07/28 04:14:21;;;;;;;1.83;1.73;;;;;;;;;;4972959;28;20203;-57
2023/07/28 04:16:47;;;;;;;2.70;1.67;;;;;;;;;;4973033;28;20190;-56
2023/07/28 04:19:13;;;;;;;1.70;1.60;;;;;;;;;;4970906;28;20187;-56
2023/07/28 04:21:42;;;;;;;1.77;1.67;;;;;;;;;;4976125;28;20198;-56
2023/07/28 04:24:08;;;;;;;1.60;1.50;;;;;;;;;;4980723;28;20281;-56
2023/07/28 04:26:34;;;;;;;2.33;1.80;;;;;;;;;;4978840;28;20268;-56
2023/07/28 04:29:00;;;;;;;3.27;1.80;;;;;;;;;;4981994;28;20270;-56
2023/07/28 04:31:26;;;;;;;1.90;1.80;;;;;;;;;;4976307;28;20314;-56
2023/07/28 04:33:52;;;;;;;1.70;1.60;;;;;;;;;;4974942;28;20209;-57
2023/07/28 04:36:18;;;;;;;1.70;1.60;;;;;;;;;;4976473;28;20600;-56
2023/07/28 04:38:44;;;;;;;1.77;1.67;;;;;;;;;;4977736;28;20225;-56
2023/07/28 04:41:10;;;;;;;1.60;1.50;;;;;;;;;;4970891;28;20191;-57
2023/07/28 04:43:36;;;;;;;1.70;1.60;;;;;;;;;;4978174;28;20234;-56
2023/07/28 04:46:02;;;;;;;1.60;1.50;;;;;;;;;;4978750;28;20194;-56
2023/07/28 04:48:28;;;;;;;1.90;1.60;;;;;;;;;;4981216;28;20268;-56
2023/07/28 04:50:55;;;;;;;1.70;1.60;;;;;;;;;;4974208;28;20264;-56
2023/07/28 04:53:21;;;;;;;1.77;1.67;;;;;;;;;;4973896;28;20223;-56
2023/07/28 04:55:47;;;;;;;1.57;1.47;;;;;;;;;;4972740;28;20663;-56
2023/07/28 04:58:13;;;;;;;1.93;1.83;;;;;;;;;;4971346;28;20190;-56
2023/07/28 05:00:39;;;;;;;1.63;1.53;;;;;;;;;;4977208;28;20692;-55
2023/07/28 05:03:05;;;;;;;1.57;1.47;;;;;;;;;;4980241;28;20512;-54
2023/07/28 05:05:31;;;;;;;1.57;1.47;;;;;;;;;;4975190;28;20507;-54
2023/07/28 05:07:57;;;;;;;1.97;1.87;;;;;;;;;;4977764;28;20183;-54
2023/07/28 05:10:23;;;;;;;2.50;1.20;;;;;;;;;;4974261;28;20194;-54
2023/07/28 05:12:49;;;;;;;1.73;1.63;;;;;;;;;;4976044;28;20183;-54
2023/07/28 05:15:16;;;;;;;1.30;1.30;;;;;;;;;;4974326;28;20251;-54
2023/07/28 05:17:42;;;;;;;1.60;1.50;;;;;;;;;;4972951;28;20184;-54
2023/07/28 05:20:08;;;;;;;1.57;1.47;;;;;;;;;;4973469;28;20286;-54
2023/07/28 05:22:34;;;;;;;1.57;1.47;;;;;;;;;;4971374;28;20219;-54
2023/07/28 05:25:01;;;;;;;1.67;1.57;;;;;;;;;;4975938;28;20754;-54
2023/07/28 05:27:27;;;;;;;1.60;1.50;;;;;;;;;;4970014;28;20183;-54
2023/07/28 05:29:53;;;;;;;1.53;1.43;;;;;;;;;;4973563;28;20667;-55
2023/07/28 05:32:19;;;;;;;1.73;1.63;;;;;;;;;;4970047;28;20726;-54
2023/07/28 05:34:45;;;;;;;1.47;1.37;;;;;;;;;;4969420;28;20191;-54
2023/07/28 05:37:11;;;;;;;1.70;1.60;;;;;;;;;;4971154;28;20562;-54
2023/07/28 05:39:37;;;;;;;1.63;1.50;;;;;;;;;;4969970;28;20679;-54
2023/07/28 05:42:03;;;;;;;1.70;1.60;;;;;;;;;;4970298;28;20309;-54
2023/07/28 05:44:29;;;;;;;2.00;1.77;;;;;;;;;;4976840;28;20227;-54
2023/07/28 05:46:55;;;;;;;1.60;1.50;;;;;;;;;;4973396;28;20682;-54
2023/07/28 05:49:21;;;;;;;1.90;1.60;;;;;;;;;;4969401;28;20183;-54
2023/07/28 05:51:47;;;;;;;2.00;1.90;;;;;;;;;;4971025;28;20677;-55
2023/07/28 05:54:16;;;;;;;1.80;1.70;;;;;;;;;;4978258;28;20199;-55
2023/07/28 05:56:43;;;;;;;1.60;1.50;;;;;;;;;;4971357;28;20643;-56
2023/07/28 05:59:09;;;;;;;1.60;1.50;;;;;;;;;;4969532;28;20663;-55
2023/07/28 06:01:35;;;;;;;1.33;1.20;;;;;;;;;;4974358;28;20222;-55
2023/07/28 06:04:01;;;;;;;1.77;1.67;;;;;;;;;;4975368;28;20634;-55
2023/07/28 06:06:27;;;;;;;2.50;2.30;;;;;;;;;;4977538;28;20285;-55
2023/07/28 06:08:54;;;;;;;1.90;1.80;;;;;;;;;;4968754;28;20266;-54
2023/07/28 06:11:21;;;;;;;2.07;1.97;;;;;;;;;;4971379;28;20235;-55
2023/07/28 06:13:47;;;;;;;2.00;1.90;;;;;;;;;;4976169;28;20179;-55
2023/07/28 06:16:13;;;;;;;2.07;1.97;;;;;;;;;;4977040;28;20188;-58
2023/07/28 06:18:40;;;;;;;1.70;1.60;;;;;;;;;;4975797;28;20237;-58
2023/07/28 06:21:06;;;;;;;2.00;1.90;;;;;;;;;;4975535;28;20203;-57
2023/07/28 06:23:32;;;;;;;2.63;2.33;;;;;;;;;;4981585;28;20661;-57
2023/07/28 06:25:58;;;;;;;2.13;1.93;;;;;;;;;;4973324;28;20242;-58
2023/07/28 06:28:24;;;;;;;2.03;1.90;;;;;;;;;;4975801;28;20195;-58
2023/07/28 06:30:57;;;;;;;2.10;1.90;;;;;;;;;;4973478;28;20234;-57
2023/07/28 06:33:23;;;;;;;2.17;2.03;;;;;;;;;;4983583;28;20198;-58
2023/07/28 06:35:49;;;;;;;2.70;2.50;;;;;;;;;;4973548;28;20195;-58
2023/07/28 06:38:15;;;;;;;2.63;2.43;;;;;;;;;;4976482;28;20306;-58
2023/07/28 06:40:41;;;;;;;2.77;2.43;;;;;;;;;;4978929;28;20334;-57
2023/07/28 06:43:07;;;;;;;3.13;2.50;;;;;;;;;;4974449;28;20212;-58
2023/07/28 06:45:33;;;;;;;2.90;2.70;;;;;;;;;;4976532;28;20199;-57
2023/07/28 06:47:59;;;;;;;3.50;3.20;;;;;;;;;;4974784;28;20199;-57
2023/07/28 06:50:25;;;;;;;3.27;2.97;;;;;;;;;;4968517;28;20191;-57
2023/07/28 06:52:51;;;;;;;3.07;2.87;;;;;;;;;;4977031;28;20198;-57
2023/07/28 06:55:18;;;;;;;4.37;2.77;;;;;;;;;;4980265;28;20654;-57
2023/07/28 06:57:45;;;;;;;3.37;3.07;;;;;;;;;;4964839;28;20187;-57
2023/07/28 07:00:11;;;;;;;4.27;3.53;;;;;;;;;;4974039;28;20192;-57
2023/07/28 07:02:37;;;;;;;3.83;3.53;;;;;;;;;;4974501;28;20639;-57
2023/07/28 07:05:03;;;;;;;3.67;3.00;;;;;;;;;;4969262;28;20278;-57
2023/07/28 07:07:30;;;;;;;3.77;3.47;;;;;;;;;;4979509;28;20214;-57
2023/07/28 07:09:56;;;;;;;8.13;3.33;;;;;;;;;;4970726;28;20184;-57
2023/07/28 07:12:22;;;;;;;3.80;3.50;;;;;;;;;;4968086;28;20192;-57
2023/07/28 07:14:48;;;;;;;4.10;3.10;;;;;;;;;;4974876;28;20184;-57
2023/07/28 07:17:14;;;;;;;4.13;3.73;;;;;;;;;;4970869;28;20191;-57
2023/07/28 07:19:40;;;;;;;3.60;3.30;;;;;;;;;;4972881;28;20210;-57
2023/07/28 07:22:06;;;;;;;3.57;3.27;;;;;;;;;;4974648;28;20462;-57
2023/07/28 07:24:32;;;;;;;4.57;4.13;;;;;;;;;;4979201;28;20269;-57
2023/07/28 07:26:59;;;;;;;4.17;3.77;;;;;;;;;;4979095;28;20180;-57
2023/07/28 07:29:25;;;;;;;6.07;3.93;;;;;;;;;;4967313;28;20217;-56
2023/07/28 07:31:54;;;;;;;4.23;3.43;;;;;;;;;;4968686;28;20219;-56
2023/07/28 07:34:21;;;;;;;3.30;3.00;;;;;;;;;;4975066;28;20184;-56
2023/07/28 07:36:47;;;;;;;3.90;3.60;;;;;;;;;;4973832;28;20233;-56
2023/07/28 07:39:13;;;;;;;3.40;3.20;;;;;;;;;;4976425;28;20618;-56
2023/07/28 07:41:39;;;;;;;3.50;3.20;;;;;;;;;;4968922;28;20306;-56
2023/07/28 07:44:06;;;;;;;3.60;3.30;;;;;;;;;;4974549;28;20239;-56
2023/07/28 07:46:32;;;;;;;3.70;3.40;;;;;;;;;;4974969;28;20190;-56
2023/07/28 07:48:58;;;;;;;4.03;3.73;;;;;;;;;;4974047;28;20642;-56
2023/07/28 07:51:24;;;;;;;3.10;2.90;;;;;;;;;;4975895;28;20258;-56
2023/07/28 07:53:51;;;;;;;3.47;3.17;;;;;;;;;;4977041;28;20262;-56
2023/07/28 07:56:17;;;;;;;3.70;3.40;;;;;;;;;;4975648;28;20193;-56
2023/07/28 07:58:43;;;;;;;4.77;2.67;;;;;;;;;;4973070;28;20744;-56
2023/07/28 08:01:10;;;;;;;3.33;3.03;;;;;;;;;;4976232;28;20195;-56
2023/07/28 08:03:36;;;;;;;3.93;3.23;;;;;;;;;;4973483;28;20660;-56
2023/07/28 08:06:02;;;;;;;3.20;2.90;;;;;;;;;;4976776;28;20211;-56
2023/07/28 08:08:28;;;;;;;3.70;3.40;;;;;;;;;;4973665;28;21595;-56
2023/07/28 08:10:54;;;;;;;3.40;3.10;;;;;;;;;;4973861;28;20692;-56
2023/07/28 08:13:20;;;;;;;3.60;3.30;;;;;;;;;;4978487;28;20764;-56
2023/07/28 08:15:47;;;;;;;3.03;2.70;;;;;;;;;;4970374;28;20215;-56
2023/07/28 08:18:14;;;;;;;3.40;3.10;;;;;;;;;;4984434;28;20183;-56
2023/07/28 08:20:40;;;;;;;3.13;2.83;;;;;;;;;;4976185;28;20178;-56
2023/07/28 08:23:06;;;;;;;2.77;2.57;;;;;;;;;;4981562;28;20207;-56
2023/07/28 08:25:34;;;;;;;3.57;3.30;;;;;;;;;;4978088;28;20184;-56
2023/07/28 08:28:00;;;;;;;3.50;3.20;;;;;;;;;;4979654;28;20255;-56
2023/07/28 08:30:26;;;;;;;3.00;2.80;;;;;;;;;;4978603;28;20265;-57
2023/07/28 08:32:52;;;;;;;3.30;3.07;;;;;;;;;;4976725;28;20930;-57
2023/07/28 08:35:18;;;;;;;2.50;2.30;;;;;;;;;;4973562;28;20671;-56
2023/07/28 08:37:44;;;;;;;3.00;2.80;;;;;;;;;;4976051;28;20221;-56
2023/07/28 08:40:11;;;;;;;2.67;2.47;;;;;;;;;;4978340;28;20266;-56
2023/07/28 08:42:38;;;;;;;2.50;2.30;;;;;;;;;;4981649;28;20187;-57
2023/07/28 08:45:05;;;;;;;2.97;2.73;;;;;;;;;;4970921;28;20184;-56
2023/07/28 08:47:32;;;;;;;2.67;2.47;;;;;;;;;;4982064;28;20187;-56
2023/07/28 08:49:58;;;;;;;2.70;2.50;;;;;;;;;;4984582;28;20643;-56
2023/07/28 08:52:24;;;;;;;2.60;2.40;;;;;;;;;;4978549;28;20242;-56
2023/07/28 08:54:51;;;;;;;2.53;2.37;;;;;;;;;;4982226;28;20198;-57
2023/07/28 08:57:19;;;;;;;2.57;2.37;;;;;;;;;;4979696;28;20187;-57
2023/07/28 08:59:47;;;;;;;2.57;2.37;;;;;;;;;;4974947;28;20274;-57
2023/07/28 09:02:15;;;;;;;3.90;2.53;;;;;;;;;;4974320;28;20246;-57
2023/07/28 09:04:42;;;;;;;2.67;2.43;;;;;;;;;;4973239;28;20295;-56
2023/07/28 09:07:09;;;;;;;2.80;2.60;;;;;;;;;;4972571;28;20183;-57
2023/07/28 09:09:36;;;;;;;2.40;2.20;;;;;;;;;;4978287;28;20543;-57
2023/07/28 09:12:03;;;;;;;3.07;2.77;;;;;;;;;;4978585;28;20806;-58
2023/07/28 09:14:30;;;;;;;3.13;2.43;;;;;;;;;;4978933;28;20195;-58
2023/07/28 09:16:57;;;;;;;3.57;2.67;;;;;;;;;;4974314;28;20242;-58
2023/07/28 09:19:23;;;;;;;2.80;2.60;;;;;;;;;;4971699;28;20188;-58
2023/07/28 09:21:59;;;;;;;2.30;2.20;;;;;;;;;;4975800;28;20195;-58
2023/07/28 09:24:32;;;;;;;2.83;2.63;;;;;;;;;;4977104;28;20198;-58
2023/07/28 09:26:58;;;;;;;2.57;2.37;;;;;;;;;;4978246;28;20508;-58
2023/07/28 09:29:24;;;;;;;3.63;2.70;;;;;;;;;;4980729;28;20237;-58
2023/07/28 09:31:51;;;;;;;2.70;2.50;;;;;;;;;;4974038;28;20638;-58
2023/07/28 09:34:27;;;;;;;2.70;2.50;;;;;;;;;;4978230;28;20278;-57
2023/07/28 09:36:56;;;;;;;2.87;2.67;;;;;;;;;;4971012;28;20183;-57
2023/07/28 09:39:23;;;;;;;2.90;2.53;;;;;;;;;;4973271;28;20523;-58
2023/07/28 09:41:50;;;;;;;3.17;2.97;;;;;;;;;;4972762;28;20213;-58
2023/07/28 09:44:17;;;;;;;2.87;2.67;;;;;;;;;;4973347;28;20207;-58
2023/07/28 09:46:51;;;;;;;2.67;2.37;;;;;;;;;;4971088;28;22073;-58
2023/07/28 09:49:20;;;;;;;2.90;2.70;;;;;;;;;;4978098;28;20176;-57
2023/07/28 09:51:49;;;;;;;2.70;2.50;;;;;;;;;;4971643;28;20660;-57
2023/07/28 09:54:27;;;;;;;2.97;2.77;;;;;;;;;;4970461;28;20937;-58
2023/07/28 09:56:57;;;;;;;2.97;2.77;;;;;;;;;;4970640;28;20192;-57
2023/07/28 09:59:25;;;;;;;3.37;2.90;;;;;;;;;;4977369;28;20182;-58
2023/07/28 10:01:52;;;;;;;2.90;2.53;;;;;;;;;;4972401;28;20888;-57
2023/07/28 10:04:18;;;;;;;3.00;2.80;;;;;;;;;;4974735;28;20305;-57
2023/07/28 10:06:44;;;;;;;2.90;2.70;;;;;;;;;;4978568;28;20194;-57
2023/07/28 10:09:11;;;;;;;3.00;2.57;;;;;;;;;;4979572;28;20171;-58
2023/07/28 10:11:39;;;;;;;3.30;3.00;;;;;;;;;;4973820;28;20188;-57
2023/07/28 10:14:10;;;;;;;2.87;2.67;;;;;;;;;;4971014;28;20254;-58
2023/07/28 10:16:39;;;;;;;3.67;2.40;;;;;;;;;;4974469;28;20206;-57
2023/07/28 10:19:05;;;;;;;2.60;2.40;;;;;;;;;;4970689;28;20336;-55
2023/07/28 10:21:32;;;;;;;3.47;2.60;;;;;;;;;;4971469;28;20196;-55
2023/07/28 10:23:58;;;;;;;2.77;2.57;;;;;;;;;;4970169;28;20208;-55
2023/07/28 10:26:37;;;;;;;2.67;2.47;;;;;;;;;;4970788;28;20192;-55
2023/07/28 10:29:10;;;;;;;3.47;2.70;;;;;;;;;;4975376;28;20293;-55
2023/07/28 10:31:36;;;;;;;3.60;2.50;;;;;;;;;;4971558;28;20317;-55
2023/07/28 10:34:03;;;;;;;2.70;2.50;;;;;;;;;;4972316;28;20612;-55
2023/07/28 10:36:29;;;;;;;2.70;2.50;;;;;;;;;;4972234;28;20767;-55
2023/07/28 10:39:14;;;;;;;5.37;2.67;;;;;;;;;;4977830;28;20191;-55
2023/07/28 10:41:42;;;;;;;2.67;2.47;;;;;;;;;;4972700;28;20710;-55
2023/07/28 10:44:08;;;;;;;2.80;2.60;;;;;;;;;;4974890;28;20521;-55
2023/07/28 10:46:37;;;;;;;2.93;2.70;;;;;;;;;;4976658;28;20179;-55
2023/07/28 10:49:06;;;;;;;3.93;3.03;;;;;;;;;;4975532;28;20179;-54
2023/07/28 10:51:33;;;;;;;2.93;2.73;;;;;;;;;;4968301;28;20192;-55
2023/07/28 10:54:00;;;;;;;3.73;2.93;;;;;;;;;;4975307;28;20176;-55
2023/07/28 10:56:26;;;;;;;2.97;2.77;;;;;;;;;;4974073;28;20704;-55
2023/07/28 10:58:59;;;;;;;3.40;3.13;;;;;;;;;;4972739;28;20203;-54
2023/07/28 11:01:33;;;;;;;4.63;3.10;;;;;;;;;;4975173;28;20200;-55
2023/07/28 11:04:06;;;;;;;3.00;2.80;;;;;;;;;;4973995;28;20199;-55
2023/07/28 11:06:32;;;;;;;3.20;3.00;;;;;;;;;;4970676;28;20274;-54
2023/07/28 11:08:58;;;;;;;3.30;3.00;;;;;;;;;;4975700;28;20650;-54
2023/07/28 11:11:24;;;;;;;3.50;3.20;;;;;;;;;;4972863;28;20202;-55
2023/07/28 11:13:51;;;;;;;3.17;2.87;;;;;;;;;;4974989;28;21828;-55
2023/07/28 11:16:17;;;;;;;2.90;2.70;;;;;;;;;;4979536;28;20217;-54
2023/07/28 11:18:43;;;;;;;2.80;2.60;;;;;;;;;;4973543;28;20620;-54
2023/07/28 11:21:09;;;;;;;3.40;3.10;;;;;;;;;;4971657;28;20592;-54
2023/07/28 11:23:35;;;;;;;3.17;2.97;;;;;;;;;;4974365;28;20215;-55
2023/07/28 11:26:01;;;;;;;2.60;2.40;;;;;;;;;;4966128;28;20196;-55
2023/07/28 11:28:28;;;;;;;2.90;2.70;;;;;;;;;;4924533;28;20222;-57
2023/07/28 11:30:54;;;;;;;2.87;2.67;;;;;;;;;;4973983;28;20638;-56
2023/07/28 11:33:20;;;;;;;2.80;2.60;;;;;;;;;;4979582;28;20578;-55
2023/07/28 11:35:47;;;;;;;2.63;2.47;;;;;;;;;;4979138;28;20266;-57
2023/07/28 11:38:13;;;;;;;2.70;2.50;;;;;;;;;;4974169;28;20239;-58
2023/07/28 11:40:39;;;;;;;3.23;3.00;;;;;;;;;;4976678;28;20657;-57
2023/07/28 11:43:05;;;;;;;3.20;2.90;;;;;;;;;;4976564;28;20220;-58
2023/07/28 11:45:32;;;;;;;2.83;2.63;;;;;;;;;;4977383;28;20222;-58
2023/07/28 11:48:03;;;;;;;2.60;2.40;;;;;;;;;;4977982;28;20263;-57
2023/07/28 11:50:30;;;;;;;3.80;2.37;;;;;;;;;;4978821;28;20192;-58
2023/07/28 11:52:57;;;;;;;2.67;2.47;;;;;;;;;;4977918;28;20180;-57
2023/07/28 11:55:24;;;;;;;3.00;2.70;;;;;;;;;;4972891;28;20261;-57
2023/07/28 11:57:51;;;;;;;2.57;2.37;;;;;;;;;;4974496;28;20226;-57
2023/07/28 12:00:17;;;;;;;2.97;2.70;;;;;;;;;;4974996;28;20194;-57
2023/07/28 12:02:43;;;;;;;2.70;2.50;;;;;;;;;;4979285;28;20278;-57
2023/07/28 12:05:13;;;;;;;2.83;2.17;;;;;;;;;;4975665;28;20267;-57
2023/07/28 12:07:39;;;;;;;2.87;2.37;;;;;;;;;;4973120;28;20261;-57
2023/07/28 12:10:09;;;;;;;2.30;2.10;;;;;;;;;;4976534;28;20195;-57
2023/07/28 12:12:45;;;;;;;2.20;2.10;;;;;;;;;;4974377;28;20187;-57
2023/07/28 12:15:31;;;;;;;1.90;1.80;;;;;;;;;;4977694;28;20204;-56
2023/07/28 12:18:13;;;;;;;2.40;2.20;;;;;;;;;;4974263;28;20689;-57
2023/07/28 12:20:46;;;;;;;2.47;2.27;;;;;;;;;;4976156;28;20206;-56
2023/07/28 12:23:12;;;;;;;2.97;2.77;;;;;;;;;;4974028;28;20212;-56
2023/07/28 12:25:39;;;;;;;2.23;2.03;;;;;;;;;;4976024;28;20185;-58
2023/07/28 12:28:05;;;;;;;2.53;1.90;;;;;;;;;;4973361;28;20275;-57
2023/07/28 12:30:32;;;;;;;2.70;2.50;;;;;;;;;;4971514;28;20589;-56
2023/07/28 12:32:58;;;;;;;2.50;2.30;;;;;;;;;;4976360;28;20197;-57
2023/07/28 12:35:28;;;;;;;2.27;2.07;;;;;;;;;;4973893;28;20183;-57
2023/07/28 12:37:54;;;;;;;2.60;2.03;;;;;;;;;;4974816;28;20941;-56
2023/07/28 12:40:20;;;;;;;2.53;2.00;;;;;;;;;;4979966;28;20260;-57
2023/07/28 12:42:47;;;;;;;2.10;1.90;;;;;;;;;;4982433;28;20181;-57
2023/07/28 12:45:15;;;;;;;1.67;1.57;;;;;;;;;;4977065;28;20202;-56
2023/07/28 12:47:41;;;;;;;2.03;1.87;;;;;;;;;;4971685;28;20603;-54
2023/07/28 12:50:07;;;;;;;2.07;1.90;;;;;;;;;;4973369;28;20228;-53
2023/07/28 12:52:34;;;;;;;2.30;2.10;;;;;;;;;;4981992;28;20695;-54
2023/07/28 12:55:00;;;;;;;2.20;2.00;;;;;;;;;;4979032;28;20628;-54
2023/07/28 12:57:26;;;;;;;2.10;2.00;;;;;;;;;;4977542;28;20546;-54
2023/07/28 12:59:52;;;;;;;3.17;2.10;;;;;;;;;;4984232;28;20563;-54
2023/07/28 13:02:18;;;;;;;2.20;2.00;;;;;;;;;;4981591;28;20197;-55
2023/07/28 13:04:44;;;;;;;1.70;1.60;;;;;;;;;;4981240;28;20617;-54
2023/07/28 13:07:10;;;;;;;2.33;1.80;;;;;;;;;;4985114;28;20718;-54
2023/07/28 13:09:36;;;;;;;2.10;1.57;;;;;;;;;;4978641;28;20196;-55
2023/07/28 13:12:02;;;;;;;3.77;1.90;;;;;;;;;;4979398;28;20321;-54
2023/07/28 13:14:29;;;;;;;1.87;1.57;;;;;;;;;;4982412;28;20235;-54
2023/07/28 13:16:55;;;;;;;1.87;1.70;;;;;;;;;;4983064;28;20530;-55
2023/07/28 13:19:21;;;;;;;1.77;1.67;;;;;;;;;;4980360;28;20504;-54
2023/07/28 13:21:47;;;;;;;1.70;1.60;;;;;;;;;;4980112;28;20189;-54
2023/07/28 13:24:13;;;;;;;1.90;1.80;;;;;;;;;;4980204;28;20619;-54
2023/07/28 13:26:39;;;;;;;2.00;1.90;;;;;;;;;;4985693;28;20216;-55
2023/07/28 13:29:06;;;;;;;1.53;1.43;;;;;;;;;;4982858;28;20212;-54
2023/07/28 13:31:33;;;;;;;1.77;1.67;;;;;;;;;;4978521;28;20257;-55
2023/07/28 13:33:59;;;;;;;2.63;1.70;;;;;;;;;;4975474;28;20596;-55
2023/07/28 13:36:25;;;;;;;2.20;2.00;;;;;;;;;;4972768;28;20752;-54
2023/07/28 13:38:51;;;;;;;1.93;1.80;;;;;;;;;;4982610;28;20231;-54
2023/07/28 13:41:17;;;;;;;2.07;1.90;;;;;;;;;;4980678;28;20186;-55
2023/07/28 13:43:43;;;;;;;1.60;1.50;;;;;;;;;;4977082;28;20802;-55
2023/07/28 13:46:09;;;;;;;2.00;1.90;;;;;;;;;;4982004;28;20178;-54
2023/07/28 13:48:35;;;;;;;1.70;1.60;;;;;;;;;;4983326;28;20727;-55
2023/07/28 13:51:02;;;;;;;1.70;1.60;;;;;;;;;;4983028;28;20645;-54
2023/07/28 13:53:28;;;;;;;1.70;1.60;;;;;;;;;;4984764;28;20213;-54
2023/07/28 13:55:55;;;;;;;1.70;1.60;;;;;;;;;;4975298;28;20193;-54
2023/07/28 13:58:21;;;;;;;2.03;1.93;;;;;;;;;;4980238;28;20196;-54
2023/07/28 14:00:47;;;;;;;1.77;1.67;;;;;;;;;;4984623;28;20201;-56
2023/07/28 14:03:15;;;;;;;1.77;1.67;;;;;;;;;;4975820;28;20214;-55
2023/07/28 14:05:41;;;;;;;2.70;1.70;;;;;;;;;;4978958;28;20650;-55
2023/07/28 14:08:07;;;;;;;1.73;1.63;;;;;;;;;;4978495;28;20201;-55
2023/07/28 14:10:33;;;;;;;1.73;1.63;;;;;;;;;;4972796;28;20198;-55
2023/07/28 14:13:00;;;;;;;1.77;1.63;;;;;;;;;;4981712;28;20608;-55
2023/07/28 14:15:26;;;;;;;1.70;1.60;;;;;;;;;;4981838;28;20276;-55
2023/07/28 14:17:52;;;;;;;1.93;1.83;;;;;;;;;;4978936;28;20185;-55
2023/07/28 14:20:18;;;;;;;1.80;1.70;;;;;;;;;;4977906;28;20220;-55
2023/07/28 14:22:44;;;;;;;1.80;1.70;;;;;;;;;;4971890;28;20197;-55
2023/07/28 14:25:10;;;;;;;1.80;1.70;;;;;;;;;;4973826;28;20300;-55
2023/07/28 14:27:36;;;;;;;1.90;1.80;;;;;;;;;;4980609;28;20200;-55
2023/07/28 14:30:02;;;;;;;1.70;1.60;;;;;;;;;;4977589;28;20238;-55
2023/07/28 14:32:28;;;;;;;2.13;2.03;;;;;;;;;;4982292;28;20200;-55
2023/07/28 14:34:54;;;;;;;1.53;1.43;;;;;;;;;;4974774;28;20187;-55
2023/07/28 14:37:21;;;;;;;1.70;1.60;;;;;;;;;;4980710;28;20824;-55
2023/07/28 14:39:47;;;;;;;2.00;1.80;;;;;;;;;;4978095;28;20609;-55
2023/07/28 14:42:13;;;;;;;1.53;1.43;;;;;;;;;;4981450;28;20668;-55